sensor_id;sensor_type;location;lat;lon;timestamp;pressure;altitude;pressure_sealevel;temperature;humidity
62438;BME280;48481;0.000;0.000;2023-05-01T00:00:46;101684.84;;;9.43;52.95
62438;BME280;48481;0.000;0.000;2023-05-01T00:03:11;101691.25;;;9.40;52.65
62438;BME280;48481;0.000;0.000;2023-05-01T00:05:38;101687.38;;;9.44;52.91
62438;BME280;48481;0.000;0.000;2023-05-01T00:08:03;101675.69;;;9.47;52.66
62438;BME280;48481;0.000;0.000;2023-05-01T00:10:29;101678.19;;;9.58;52.23
62438;BME280;48481;0.000;0.000;2023-05-01T00:12:55;101667.19;;;9.43;52.73
62438;BME280;48481;0.000;0.000;2023-05-01T00:15:20;101668.84;;;9.35;52.84
62438;BME280;48481;0.000;0.000;2023-05-01T00:17:46;101664.41;;;9.35;52.88
62438;BME280;48481;0.000;0.000;2023-05-01T00:20:11;101671.22;;;9.38;53.03
62438;BME280;48481;0.000;0.000;2023-05-01T00:22:36;101666.06;;;9.27;53.45
62438;BME280;48481;0.000;0.000;2023-05-01T00:25:02;101656.31;;;9.17;53.69
62438;BME280;48481;0.000;0.000;2023-05-01T00:27:27;101659.22;;;9.14;54.15
62438;BME280;48481;0.000;0.000;2023-05-01T00:29:53;101653.41;;;9.20;54.09
62438;BME280;48481;0.000;0.000;2023-05-01T00:32:18;101650.75;;;9.20;54.16
62438;BME280;48481;0.000;0.000;2023-05-01T00:34:43;101640.50;;;9.37;53.92
62438;BME280;48481;0.000;0.000;2023-05-01T00:37:11;101639.66;;;9.27;54.17
62438;BME280;48481;0.000;0.000;2023-05-01T00:39:37;101644.34;;;9.13;54.76
62438;BME280;48481;0.000;0.000;2023-05-01T00:42:02;101643.81;;;9.19;54.37
62438;BME280;48481;0.000;0.000;2023-05-01T00:44:27;101636.19;;;9.26;54.66
62438;BME280;48481;0.000;0.000;2023-05-01T00:46:53;101638.81;;;9.16;54.54
62438;BME280;48481;0.000;0.000;2023-05-01T00:49:19;101636.56;;;9.12;54.71
62438;BME280;48481;0.000;0.000;2023-05-01T00:51:47;101640.88;;;9.13;55.13
62438;BME280;48481;0.000;0.000;2023-05-01T00:54:13;101629.63;;;9.11;55.21
62438;BME280;48481;0.000;0.000;2023-05-01T00:56:38;101635.34;;;8.85;55.38
62438;BME280;48481;0.000;0.000;2023-05-01T00:59:04;101628.41;;;8.84;55.41
62438;BME280;48481;0.000;0.000;2023-05-01T01:01:29;101626.06;;;8.91;55.58
62438;BME280;48481;0.000;0.000;2023-05-01T01:03:55;101624.63;;;8.77;55.82
62438;BME280;48481;0.000;0.000;2023-05-01T01:06:36;101622.13;;;8.76;55.71
62438;BME280;48481;0.000;0.000;2023-05-01T01:12:05;101622.59;;;8.90;55.54
62438;BME280;48481;0.000;0.000;2023-05-01T01:14:47;101626.72;;;8.74;55.96
62438;BME280;48481;0.000;0.000;2023-05-01T01:17:31;101619.50;;;8.76;55.92
62438;BME280;48481;0.000;0.000;2023-05-01T01:26:32;101614.03;;;8.37;56.60
62438;BME280;48481;0.000;0.000;2023-05-01T01:31:45;101609.72;;;8.57;56.88
62438;BME280;48481;0.000;0.000;2023-05-01T01:34:19;101609.06;;;8.74;56.68
62438;BME280;48481;0.000;0.000;2023-05-01T01:39:42;101610.19;;;8.81;56.23
62438;BME280;48481;0.000;0.000;2023-05-01T01:42:14;101614.47;;;8.73;56.33
62438;BME280;48481;0.000;0.000;2023-05-01T01:44:48;101602.09;;;8.64;56.64
62438;BME280;48481;0.000;0.000;2023-05-01T01:47:15;101604.63;;;8.44;57.19
62438;BME280;48481;0.000;0.000;2023-05-01T01:49:48;101603.69;;;8.45;57.36
62438;BME280;48481;0.000;0.000;2023-05-01T01:52:16;101595.19;;;8.42;57.30
62438;BME280;48481;0.000;0.000;2023-05-01T01:54:48;101600.97;;;8.36;57.64
62438;BME280;48481;0.000;0.000;2023-05-01T01:57:16;101598.63;;;8.63;56.92
62438;BME280;48481;0.000;0.000;2023-05-01T01:59:43;101594.41;;;8.51;57.13
62438;BME280;48481;0.000;0.000;2023-05-01T02:02:10;101601.56;;;8.39;57.46
62438;BME280;48481;0.000;0.000;2023-05-01T02:04:37;101593.06;;;8.15;58.34
62438;BME280;48481;0.000;0.000;2023-05-01T02:07:04;101591.34;;;8.04;58.76
62438;BME280;48481;0.000;0.000;2023-05-01T02:09:37;101590.22;;;8.27;58.29
62438;BME280;48481;0.000;0.000;2023-05-01T02:12:04;101586.28;;;7.91;58.77
62438;BME280;48481;0.000;0.000;2023-05-01T02:14:31;101586.53;;;7.88;59.18
62438;BME280;48481;0.000;0.000;2023-05-01T02:16:58;101580.41;;;8.09;58.32
62438;BME280;48481;0.000;0.000;2023-05-01T02:19:24;101583.41;;;7.94;58.83
62438;BME280;48481;0.000;0.000;2023-05-01T02:21:51;101581.28;;;7.88;59.08
62438;BME280;48481;0.000;0.000;2023-05-01T02:24:20;101571.59;;;7.78;59.35
62438;BME280;48481;0.000;0.000;2023-05-01T02:26:53;101575.91;;;7.79;59.64
62438;BME280;48481;0.000;0.000;2023-05-01T02:29:20;101573.41;;;7.77;59.42
62438;BME280;48481;0.000;0.000;2023-05-01T02:31:46;101565.28;;;7.80;59.30
62438;BME280;48481;0.000;0.000;2023-05-01T02:34:11;101558.31;;;7.79;59.22
62438;BME280;48481;0.000;0.000;2023-05-01T02:36:36;101561.72;;;7.70;59.73
62438;BME280;48481;0.000;0.000;2023-05-01T02:39:02;101557.41;;;7.69;59.35
62438;BME280;48481;0.000;0.000;2023-05-01T02:41:28;101550.16;;;8.03;58.80
62438;BME280;48481;0.000;0.000;2023-05-01T02:44:00;101552.19;;;7.79;59.22
62438;BME280;48481;0.000;0.000;2023-05-01T02:46:26;101550.66;;;7.76;59.04
62438;BME280;48481;0.000;0.000;2023-05-01T02:48:53;101549.00;;;7.75;59.08
62438;BME280;48481;0.000;0.000;2023-05-01T02:51:20;101547.66;;;7.81;59.66
62438;BME280;48481;0.000;0.000;2023-05-01T02:53:47;101552.28;;;7.88;59.01
62438;BME280;48481;0.000;0.000;2023-05-01T02:56:12;101551.31;;;7.89;59.00
62438;BME280;48481;0.000;0.000;2023-05-01T02:58:38;101543.47;;;7.99;58.50
62438;BME280;48481;0.000;0.000;2023-05-01T03:01:04;101541.09;;;7.96;58.70
62438;BME280;48481;0.000;0.000;2023-05-01T03:03:30;101531.91;;;7.90;58.58
62438;BME280;48481;0.000;0.000;2023-05-01T03:05:55;101535.56;;;7.78;58.99
62438;BME280;48481;0.000;0.000;2023-05-01T03:08:21;101532.47;;;7.73;58.99
62438;BME280;48481;0.000;0.000;2023-05-01T03:10:47;101536.34;;;7.69;59.10
62438;BME280;48481;0.000;0.000;2023-05-01T03:13:12;101534.22;;;7.63;59.02
62438;BME280;48481;0.000;0.000;2023-05-01T03:15:37;101535.00;;;7.54;59.29
62438;BME280;48481;0.000;0.000;2023-05-01T03:18:03;101532.09;;;7.57;59.10
62438;BME280;48481;0.000;0.000;2023-05-01T03:20:29;101528.56;;;7.47;59.69
62438;BME280;48481;0.000;0.000;2023-05-01T03:22:55;101528.38;;;7.39;60.04
62438;BME280;48481;0.000;0.000;2023-05-01T03:25:20;101521.31;;;7.39;60.18
62438;BME280;48481;0.000;0.000;2023-05-01T03:27:46;101526.06;;;7.45;59.95
62438;BME280;48481;0.000;0.000;2023-05-01T03:30:11;101520.22;;;7.42;59.65
62438;BME280;48481;0.000;0.000;2023-05-01T03:32:37;101518.66;;;7.39;59.80
62438;BME280;48481;0.000;0.000;2023-05-01T03:35:03;101512.13;;;7.54;59.24
62438;BME280;48481;0.000;0.000;2023-05-01T03:37:28;101504.31;;;7.74;58.72
62438;BME280;48481;0.000;0.000;2023-05-01T03:39:53;101503.72;;;7.81;58.85
62438;BME280;48481;0.000;0.000;2023-05-01T03:42:19;101496.19;;;7.56;58.72
62438;BME280;48481;0.000;0.000;2023-05-01T03:44:44;101500.03;;;7.52;59.10
62438;BME280;48481;0.000;0.000;2023-05-01T03:47:10;101493.88;;;7.42;59.42
62438;BME280;48481;0.000;0.000;2023-05-01T03:49:35;101497.34;;;7.42;59.49
62438;BME280;48481;0.000;0.000;2023-05-01T03:52:00;101494.38;;;7.36;59.83
62438;BME280;48481;0.000;0.000;2023-05-01T03:54:26;101495.75;;;7.30;60.14
62438;BME280;48481;0.000;0.000;2023-05-01T03:56:51;101496.00;;;7.27;60.10
62438;BME280;48481;0.000;0.000;2023-05-01T03:59:17;101489.38;;;7.32;59.95
62438;BME280;48481;0.000;0.000;2023-05-01T04:01:42;101488.03;;;7.38;59.35
62438;BME280;48481;0.000;0.000;2023-05-01T04:04:08;101480.72;;;7.42;59.39
62438;BME280;48481;0.000;0.000;2023-05-01T04:06:34;101487.59;;;7.33;59.36
62438;BME280;48481;0.000;0.000;2023-05-01T04:09:00;101480.66;;;7.53;58.69
62438;BME280;48481;0.000;0.000;2023-05-01T04:11:26;101473.19;;;7.37;59.26
62438;BME280;48481;0.000;0.000;2023-05-01T04:13:51;101474.81;;;7.28;59.62
62438;BME280;48481;0.000;0.000;2023-05-01T04:16:17;101472.66;;;7.64;58.78
62438;BME280;48481;0.000;0.000;2023-05-01T04:18:42;101464.38;;;7.69;58.57
62438;BME280;48481;0.000;0.000;2023-05-01T04:21:07;101472.28;;;7.69;58.67
62438;BME280;48481;0.000;0.000;2023-05-01T04:23:33;101467.44;;;7.74;58.47
62438;BME280;48481;0.000;0.000;2023-05-01T04:25:58;101463.13;;;7.93;58.17
62438;BME280;48481;0.000;0.000;2023-05-01T04:28:23;101466.75;;;8.02;57.43
62438;BME280;48481;0.000;0.000;2023-05-01T04:30:49;101461.56;;;8.21;56.80
62438;BME280;48481;0.000;0.000;2023-05-01T04:33:14;101454.47;;;8.22;56.38
62438;BME280;48481;0.000;0.000;2023-05-01T04:35:40;101453.19;;;8.07;56.51
62438;BME280;48481;0.000;0.000;2023-05-01T04:38:07;101451.84;;;8.22;56.32
62438;BME280;48481;0.000;0.000;2023-05-01T04:40:33;101453.44;;;8.44;56.25
62438;BME280;48481;0.000;0.000;2023-05-01T04:42:59;101455.34;;;8.32;56.00
62438;BME280;48481;0.000;0.000;2023-05-01T04:45:24;101451.88;;;8.32;56.08
62438;BME280;48481;0.000;0.000;2023-05-01T04:47:50;101451.16;;;8.30;56.10
62438;BME280;48481;0.000;0.000;2023-05-01T04:50:15;101445.75;;;8.31;56.15
62438;BME280;48481;0.000;0.000;2023-05-01T04:52:40;101438.22;;;8.47;55.81
62438;BME280;48481;0.000;0.000;2023-05-01T04:55:06;101444.34;;;8.57;55.78
62438;BME280;48481;0.000;0.000;2023-05-01T04:57:33;101445.53;;;8.44;55.79
62438;BME280;48481;0.000;0.000;2023-05-01T04:59:58;101447.47;;;8.42;55.95
62438;BME280;48481;0.000;0.000;2023-05-01T05:02:24;101449.47;;;8.49;55.87
62438;BME280;48481;0.000;0.000;2023-05-01T05:04:49;101458.06;;;8.51;55.57
62438;BME280;48481;0.000;0.000;2023-05-01T05:07:18;101457.09;;;8.52;55.86
62438;BME280;48481;0.000;0.000;2023-05-01T05:09:43;101454.47;;;8.72;55.45
62438;BME280;48481;0.000;0.000;2023-05-01T05:12:08;101451.97;;;8.61;55.07
62438;BME280;48481;0.000;0.000;2023-05-01T05:14:34;101446.16;;;8.86;54.15
62438;BME280;48481;0.000;0.000;2023-05-01T05:16:59;101438.66;;;9.01;54.12
62438;BME280;48481;0.000;0.000;2023-05-01T05:19:24;101445.59;;;8.92;53.86
62438;BME280;48481;0.000;0.000;2023-05-01T05:21:50;101444.34;;;9.06;53.28
62438;BME280;48481;0.000;0.000;2023-05-01T05:24:15;101443.94;;;8.91;53.24
62438;BME280;48481;0.000;0.000;2023-05-01T05:26:40;101448.09;;;9.03;53.51
62438;BME280;48481;0.000;0.000;2023-05-01T05:29:06;101449.34;;;9.09;53.33
62438;BME280;48481;0.000;0.000;2023-05-01T05:31:31;101445.06;;;9.17;53.25
62438;BME280;48481;0.000;0.000;2023-05-01T05:33:56;101440.19;;;9.23;53.38
62438;BME280;48481;0.000;0.000;2023-05-01T05:36:22;101442.22;;;9.38;53.34
62438;BME280;48481;0.000;0.000;2023-05-01T05:38:49;101449.06;;;9.21;53.30
62438;BME280;48481;0.000;0.000;2023-05-01T05:41:14;101434.91;;;9.23;53.52
62438;BME280;48481;0.000;0.000;2023-05-01T05:43:40;101433.63;;;9.27;53.35
62438;BME280;48481;0.000;0.000;2023-05-01T05:46:06;101436.13;;;9.28;52.97
62438;BME280;48481;0.000;0.000;2023-05-01T05:48:31;101431.13;;;9.25;53.22
62438;BME280;48481;0.000;0.000;2023-05-01T05:50:57;101437.81;;;9.00;53.83
62438;BME280;48481;0.000;0.000;2023-05-01T05:53:22;101433.38;;;9.20;53.81
62438;BME280;48481;0.000;0.000;2023-05-01T05:55:48;101435.88;;;9.12;53.62
62438;BME280;48481;0.000;0.000;2023-05-01T05:58:14;101431.56;;;9.20;53.78
62438;BME280;48481;0.000;0.000;2023-05-01T06:00:45;101427.22;;;9.39;53.14
62438;BME280;48481;0.000;0.000;2023-05-01T06:03:11;101425.84;;;9.35;53.12
62438;BME280;48481;0.000;0.000;2023-05-01T06:05:37;101421.00;;;9.77;52.05
62438;BME280;48481;0.000;0.000;2023-05-01T06:08:02;101420.13;;;9.86;51.89
62438;BME280;48481;0.000;0.000;2023-05-01T06:10:28;101426.28;;;9.67;51.88
62438;BME280;48481;0.000;0.000;2023-05-01T06:12:53;101408.94;;;9.92;51.32
62438;BME280;48481;0.000;0.000;2023-05-01T06:15:18;101408.94;;;10.20;51.03
62438;BME280;48481;0.000;0.000;2023-05-01T06:17:44;101410.81;;;10.37;50.41
62438;BME280;48481;0.000;0.000;2023-05-01T06:20:10;101401.63;;;10.59;49.76
62438;BME280;48481;0.000;0.000;2023-05-01T06:22:35;101402.94;;;10.27;50.30
62438;BME280;48481;0.000;0.000;2023-05-01T06:25:01;101411.63;;;10.37;50.04
62438;BME280;48481;0.000;0.000;2023-05-01T06:27:26;101405.72;;;10.53;49.72
62438;BME280;48481;0.000;0.000;2023-05-01T06:29:52;101400.63;;;10.77;49.50
62438;BME280;48481;0.000;0.000;2023-05-01T06:32:17;101399.50;;;10.80;49.34
62438;BME280;48481;0.000;0.000;2023-05-01T06:34:42;101403.38;;;10.68;50.33
62438;BME280;48481;0.000;0.000;2023-05-01T06:37:08;101399.34;;;10.64;50.09
62438;BME280;48481;0.000;0.000;2023-05-01T06:39:33;101397.53;;;10.82;50.01
62438;BME280;48481;0.000;0.000;2023-05-01T06:41:59;101383.38;;;11.09;49.26
62438;BME280;48481;0.000;0.000;2023-05-01T06:44:25;101385.75;;;11.20;48.67
62438;BME280;48481;0.000;0.000;2023-05-01T06:46:50;101383.31;;;11.27;48.41
62438;BME280;48481;0.000;0.000;2023-05-01T06:49:16;101384.50;;;11.32;48.08
62438;BME280;48481;0.000;0.000;2023-05-01T06:51:41;101385.69;;;11.38;48.22
62438;BME280;48481;0.000;0.000;2023-05-01T06:54:07;101382.78;;;11.23;48.92
62438;BME280;48481;0.000;0.000;2023-05-01T06:56:32;101381.94;;;11.49;47.69
62438;BME280;48481;0.000;0.000;2023-05-01T06:58:58;101376.72;;;11.31;48.14
62438;BME280;48481;0.000;0.000;2023-05-01T07:01:23;101369.06;;;11.28;48.82
62438;BME280;48481;0.000;0.000;2023-05-01T07:03:48;101373.78;;;11.42;48.16
62438;BME280;48481;0.000;0.000;2023-05-01T07:06:14;101368.34;;;11.18;48.92
62438;BME280;48481;0.000;0.000;2023-05-01T07:08:39;101359.41;;;11.44;48.13
62438;BME280;48481;0.000;0.000;2023-05-01T07:11:05;101363.53;;;11.73;47.34
62438;BME280;48481;0.000;0.000;2023-05-01T07:13:31;101358.81;;;11.85;46.78
62438;BME280;48481;0.000;0.000;2023-05-01T07:15:57;101353.72;;;12.07;45.79
62438;BME280;48481;0.000;0.000;2023-05-01T07:18:22;101350.94;;;12.17;45.91
62438;BME280;48481;0.000;0.000;2023-05-01T07:20:47;101345.03;;;12.64;45.02
62438;BME280;48481;0.000;0.000;2023-05-01T07:23:14;101346.84;;;12.63;45.11
62438;BME280;48481;0.000;0.000;2023-05-01T07:25:40;101341.72;;;12.70;44.93
62438;BME280;48481;0.000;0.000;2023-05-01T07:28:05;101340.97;;;12.19;46.23
62438;BME280;48481;0.000;0.000;2023-05-01T07:30:32;101340.81;;;12.21;45.75
62438;BME280;48481;0.000;0.000;2023-05-01T07:32:57;101339.16;;;12.20;46.38
62438;BME280;48481;0.000;0.000;2023-05-01T07:35:23;101329.38;;;12.28;45.74
62438;BME280;48481;0.000;0.000;2023-05-01T07:37:49;101329.41;;;12.36;44.93
62438;BME280;48481;0.000;0.000;2023-05-01T07:40:17;101322.78;;;12.73;44.35
62438;BME280;48481;0.000;0.000;2023-05-01T07:42:43;101324.59;;;12.81;44.72
62438;BME280;48481;0.000;0.000;2023-05-01T07:45:09;101315.78;;;12.88;44.28
62438;BME280;48481;0.000;0.000;2023-05-01T07:47:34;101314.28;;;12.94;44.21
62438;BME280;48481;0.000;0.000;2023-05-01T07:50:00;101307.31;;;13.09;43.81
62438;BME280;48481;0.000;0.000;2023-05-01T07:52:26;101309.06;;;13.41;42.61
62438;BME280;48481;0.000;0.000;2023-05-01T07:54:51;101306.81;;;12.97;43.89
62438;BME280;48481;0.000;0.000;2023-05-01T07:57:17;101310.13;;;12.91;43.74
62438;BME280;48481;0.000;0.000;2023-05-01T07:59:42;101302.00;;;12.93;44.41
62438;BME280;48481;0.000;0.000;2023-05-01T08:02:08;101300.03;;;12.87;43.83
62438;BME280;48481;0.000;0.000;2023-05-01T08:04:33;101300.50;;;13.07;43.65
62438;BME280;48481;0.000;0.000;2023-05-01T08:06:58;101291.88;;;12.96;43.80
62438;BME280;48481;0.000;0.000;2023-05-01T08:09:24;101296.16;;;13.22;43.31
62438;BME280;48481;0.000;0.000;2023-05-01T08:11:49;101299.66;;;12.98;43.08
62438;BME280;48481;0.000;0.000;2023-05-01T08:14:14;101299.16;;;13.19;42.78
62438;BME280;48481;0.000;0.000;2023-05-01T08:16:42;101299.34;;;13.56;42.29
62438;BME280;48481;0.000;0.000;2023-05-01T08:19:07;101296.50;;;13.97;42.15
62438;BME280;48481;0.000;0.000;2023-05-01T08:21:33;101292.13;;;14.04;41.51
62438;BME280;48481;0.000;0.000;2023-05-01T08:23:58;101285.50;;;14.00;41.50
62438;BME280;48481;0.000;0.000;2023-05-01T08:26:23;101279.59;;;14.13;41.02
62438;BME280;48481;0.000;0.000;2023-05-01T08:28:49;101280.19;;;14.23;40.81
62438;BME280;48481;0.000;0.000;2023-05-01T08:31:15;101285.63;;;14.07;41.39
62438;BME280;48481;0.000;0.000;2023-05-01T08:33:40;101282.94;;;14.38;40.86
62438;BME280;48481;0.000;0.000;2023-05-01T08:36:08;101278.69;;;14.51;40.37
62438;BME280;48481;0.000;0.000;2023-05-01T08:38:35;101280.34;;;14.52;40.37
62438;BME280;48481;0.000;0.000;2023-05-01T08:41:00;101280.09;;;14.62;40.39
62438;BME280;48481;0.000;0.000;2023-05-01T08:43:30;101276.16;;;14.73;40.11
62438;BME280;48481;0.000;0.000;2023-05-01T08:45:57;101266.78;;;14.91;39.92
62438;BME280;48481;0.000;0.000;2023-05-01T08:48:24;101263.78;;;15.09;39.50
62438;BME280;48481;0.000;0.000;2023-05-01T08:50:54;101258.94;;;14.98;39.60
62438;BME280;48481;0.000;0.000;2023-05-01T08:53:21;101261.00;;;14.73;40.26
62438;BME280;48481;0.000;0.000;2023-05-01T08:55:48;101259.34;;;14.72;39.99
62438;BME280;48481;0.000;0.000;2023-05-01T08:58:17;101265.31;;;14.74;39.92
62438;BME280;48481;0.000;0.000;2023-05-01T09:00:44;101258.53;;;14.86;39.46
62438;BME280;48481;0.000;0.000;2023-05-01T09:03:11;101257.09;;;15.13;39.26
62438;BME280;48481;0.000;0.000;2023-05-01T09:05:38;101247.59;;;15.40;38.69
62438;BME280;48481;0.000;0.000;2023-05-01T09:08:03;101249.06;;;15.58;38.04
62438;BME280;48481;0.000;0.000;2023-05-01T09:10:29;101237.56;;;15.42;38.04
62438;BME280;48481;0.000;0.000;2023-05-01T09:12:56;101243.19;;;15.83;37.64
62438;BME280;48481;0.000;0.000;2023-05-01T09:15:27;101240.72;;;15.82;36.99
62438;BME280;48481;0.000;0.000;2023-05-01T09:17:53;101233.78;;;15.66;36.80
62438;BME280;48481;0.000;0.000;2023-05-01T09:20:19;101232.22;;;15.93;36.92
62438;BME280;48481;0.000;0.000;2023-05-01T09:22:45;101221.03;;;15.83;36.79
62438;BME280;48481;0.000;0.000;2023-05-01T09:25:11;101226.81;;;16.08;36.16
62438;BME280;48481;0.000;0.000;2023-05-01T09:27:36;101222.84;;;15.61;37.36
62438;BME280;48481;0.000;0.000;2023-05-01T09:30:03;101223.38;;;15.93;36.63
62438;BME280;48481;0.000;0.000;2023-05-01T09:32:30;101221.16;;;15.96;36.46
62438;BME280;48481;0.000;0.000;2023-05-01T09:35:11;101208.94;;;15.87;36.17
62438;BME280;48481;0.000;0.000;2023-05-01T09:37:37;101213.78;;;15.77;36.93
62438;BME280;48481;0.000;0.000;2023-05-01T09:42:30;101213.13;;;16.17;36.37
62438;BME280;48481;0.000;0.000;2023-05-01T09:44:59;101220.44;;;16.30;36.02
62438;BME280;48481;0.000;0.000;2023-05-01T09:47:26;101209.97;;;16.29;35.62
62438;BME280;48481;0.000;0.000;2023-05-01T09:49:54;101209.13;;;16.07;35.88
62438;BME280;48481;0.000;0.000;2023-05-01T09:52:21;101202.88;;;16.21;35.73
62438;BME280;48481;0.000;0.000;2023-05-01T09:54:46;101198.75;;;16.18;35.83
62438;BME280;48481;0.000;0.000;2023-05-01T09:57:12;101202.66;;;15.95;36.28
62438;BME280;48481;0.000;0.000;2023-05-01T09:59:37;101199.56;;;16.19;36.69
62438;BME280;48481;0.000;0.000;2023-05-01T10:02:03;101196.41;;;16.09;38.14
62438;BME280;48481;0.000;0.000;2023-05-01T10:04:32;101202.28;;;15.98;37.54
62438;BME280;48481;0.000;0.000;2023-05-01T10:07:10;101193.41;;;16.18;39.31
62438;BME280;48481;0.000;0.000;2023-05-01T10:09:36;101192.91;;;16.58;35.03
62438;BME280;48481;0.000;0.000;2023-05-01T10:12:01;101186.41;;;16.67;34.54
62438;BME280;48481;0.000;0.000;2023-05-01T10:14:27;101187.47;;;17.07;34.14
62438;BME280;48481;0.000;0.000;2023-05-01T10:16:54;101186.28;;;16.82;34.70
62438;BME280;48481;0.000;0.000;2023-05-01T10:19:21;101184.53;;;16.95;35.38
62438;BME280;48481;0.000;0.000;2023-05-01T10:21:47;101177.44;;;17.22;36.62
62438;BME280;48481;0.000;0.000;2023-05-01T10:24:13;101182.03;;;17.35;34.55
62438;BME280;48481;0.000;0.000;2023-05-01T10:26:40;101182.19;;;17.20;34.24
62438;BME280;48481;0.000;0.000;2023-05-01T10:29:07;101173.56;;;17.31;34.10
62438;BME280;48481;0.000;0.000;2023-05-01T10:31:33;101172.19;;;17.55;33.21
62438;BME280;48481;0.000;0.000;2023-05-01T10:33:59;101167.84;;;17.41;36.72
62438;BME280;48481;0.000;0.000;2023-05-01T10:36:42;101162.06;;;17.37;35.57
62438;BME280;48481;0.000;0.000;2023-05-01T10:39:32;101155.91;;;17.43;33.61
62438;BME280;48481;0.000;0.000;2023-05-01T10:44:24;101143.47;;;17.16;32.74
62438;BME280;48481;0.000;0.000;2023-05-01T10:46:50;101143.47;;;17.09;33.09
62438;BME280;48481;0.000;0.000;2023-05-01T10:49:16;101137.94;;;17.24;33.42
62438;BME280;48481;0.000;0.000;2023-05-01T10:54:30;101134.22;;;17.19;33.15
62438;BME280;48481;0.000;0.000;2023-05-01T10:57:00;101133.78;;;17.69;32.29
62438;BME280;48481;0.000;0.000;2023-05-01T10:59:27;101121.41;;;17.75;32.44
62438;BME280;48481;0.000;0.000;2023-05-01T11:02:30;101116.69;;;17.97;31.67
62438;BME280;48481;0.000;0.000;2023-05-01T11:04:55;101103.72;;;17.87;31.48
62438;BME280;48481;0.000;0.000;2023-05-01T11:07:21;101104.75;;;17.73;31.43
62438;BME280;48481;0.000;0.000;2023-05-01T11:09:54;101104.53;;;17.81;31.31
62438;BME280;48481;0.000;0.000;2023-05-01T11:12:47;101106.19;;;17.82;31.01
62438;BME280;48481;0.000;0.000;2023-05-01T11:15:27;101100.38;;;17.59;31.05
62438;BME280;48481;0.000;0.000;2023-05-01T11:17:53;101101.03;;;17.67;30.96
62438;BME280;48481;0.000;0.000;2023-05-01T11:22:53;101101.50;;;17.10;31.18
62438;BME280;48481;0.000;0.000;2023-05-01T11:27:49;101097.44;;;17.34;31.25
62438;BME280;48481;0.000;0.000;2023-05-01T11:30:15;101086.00;;;17.80;30.92
62438;BME280;48481;0.000;0.000;2023-05-01T11:32:47;101083.72;;;17.96;30.19
62438;BME280;48481;0.000;0.000;2023-05-01T11:35:23;101076.94;;;17.87;30.48
62438;BME280;48481;0.000;0.000;2023-05-01T11:37:52;101069.50;;;17.96;31.70
62438;BME280;48481;0.000;0.000;2023-05-01T11:42:50;101058.56;;;18.17;32.47
62438;BME280;48481;0.000;0.000;2023-05-01T11:45:18;101057.88;;;18.48;29.49
62438;BME280;48481;0.000;0.000;2023-05-01T11:47:43;101055.44;;;18.40;28.69
62438;BME280;48481;0.000;0.000;2023-05-01T11:50:09;101050.97;;;18.01;29.50
62438;BME280;48481;0.000;0.000;2023-05-01T11:52:49;101044.91;;;18.45;31.19
62438;BME280;48481;0.000;0.000;2023-05-01T11:55:20;101044.13;;;18.89;28.30
62438;BME280;48481;0.000;0.000;2023-05-01T11:57:54;101042.53;;;19.13;28.59
62438;BME280;48481;0.000;0.000;2023-05-01T12:00:41;101038.91;;;19.32;28.25
62438;BME280;48481;0.000;0.000;2023-05-01T12:03:13;101038.91;;;19.32;29.05
62438;BME280;48481;0.000;0.000;2023-05-01T12:05:42;101038.47;;;19.36;27.58
62438;BME280;48481;0.000;0.000;2023-05-01T12:08:12;101026.56;;;19.25;28.40
62438;BME280;48481;0.000;0.000;2023-05-01T12:10:40;101040.81;;;19.25;27.37
62438;BME280;48481;0.000;0.000;2023-05-01T12:13:07;101031.81;;;19.13;27.82
62438;BME280;48481;0.000;0.000;2023-05-01T12:15:34;101027.00;;;18.90;28.29
62438;BME280;48481;0.000;0.000;2023-05-01T12:18:02;101024.88;;;18.99;28.77
62438;BME280;48481;0.000;0.000;2023-05-01T12:20:38;101023.34;;;19.41;28.30
62438;BME280;48481;0.000;0.000;2023-05-01T12:23:05;101020.28;;;19.38;28.50
62438;BME280;48481;0.000;0.000;2023-05-01T12:25:32;101023.84;;;19.00;28.49
62438;BME280;48481;0.000;0.000;2023-05-01T12:27:59;101019.16;;;19.20;28.46
62438;BME280;48481;0.000;0.000;2023-05-01T12:30:26;101020.38;;;19.24;28.11
62438;BME280;48481;0.000;0.000;2023-05-01T12:32:51;101009.44;;;18.94;28.20
62438;BME280;48481;0.000;0.000;2023-05-01T12:35:17;101015.28;;;19.16;29.05
62438;BME280;48481;0.000;0.000;2023-05-01T12:37:42;101014.84;;;19.19;28.94
62438;BME280;48481;0.000;0.000;2023-05-01T12:40:14;101012.78;;;19.53;28.40
62438;BME280;48481;0.000;0.000;2023-05-01T12:42:40;101008.16;;;19.28;29.12
62438;BME280;48481;0.000;0.000;2023-05-01T12:45:06;101006.41;;;19.16;29.02
62438;BME280;48481;0.000;0.000;2023-05-01T12:47:36;101007.38;;;18.96;28.87
62438;BME280;48481;0.000;0.000;2023-05-01T12:50:02;101003.28;;;19.19;29.02
62438;BME280;48481;0.000;0.000;2023-05-01T12:52:28;101004.50;;;19.48;28.19
62438;BME280;48481;0.000;0.000;2023-05-01T12:55:01;101006.03;;;19.12;28.34
62438;BME280;48481;0.000;0.000;2023-05-01T12:57:27;101007.84;;;18.80;28.67
62438;BME280;48481;0.000;0.000;2023-05-01T12:59:58;100996.91;;;18.82;28.69
62438;BME280;48481;0.000;0.000;2023-05-01T13:02:32;100999.16;;;18.85;29.04
62438;BME280;48481;0.000;0.000;2023-05-01T13:07:49;100993.03;;;18.71;29.09
62438;BME280;48481;0.000;0.000;2023-05-01T13:10:28;100993.81;;;18.78;29.17
62438;BME280;48481;0.000;0.000;2023-05-01T13:12:54;100995.38;;;18.99;28.98
62438;BME280;48481;0.000;0.000;2023-05-01T13:15:20;100986.16;;;18.88;28.23
62438;BME280;48481;0.000;0.000;2023-05-01T13:17:46;100979.91;;;19.01;28.38
62438;BME280;48481;0.000;0.000;2023-05-01T13:20:12;100979.97;;;18.88;28.74
62438;BME280;48481;0.000;0.000;2023-05-01T13:22:38;100983.97;;;18.72;29.28
62438;BME280;48481;0.000;0.000;2023-05-01T13:25:13;100980.81;;;18.88;28.96
62438;BME280;48481;0.000;0.000;2023-05-01T13:27:39;100978.91;;;18.51;28.63
62438;BME280;48481;0.000;0.000;2023-05-01T13:30:05;100979.34;;;18.41;28.12
62438;BME280;48481;0.000;0.000;2023-05-01T13:32:32;100975.16;;;18.58;28.66
62438;BME280;48481;0.000;0.000;2023-05-01T13:34:59;100972.47;;;18.58;28.96
62438;BME280;48481;0.000;0.000;2023-05-01T13:37:25;100974.66;;;18.75;28.83